首页
METAR-TAF:

METAR-TAF

机场 :

Ingalls Field

温泉城, 弗吉尼亚州, 美国

纬度: 37-57N, 经度: 079-50W, 海拔: 1156米

当前天气观测

该预报发布于19分钟前的11:15 UTC
风速17节,风向西南,有时为25节阵风
温度 11°C
湿度 100%
气压 1000 hPa
能見度: 11.3公里
阴天层高于400英尺
小雨

METAR: KHSP 241115Z AUTO 22017G25KT 7SM -RA OVC004 11/11 A2953 RMK AO2 T01080108

时间: 06:34 (11:34 UTC)


TAF: 丢失

超过4000个机场的气象观测和天气预报(METAR&TAF报告)。

可查询的气象台以黄色和红色小点在地图上表示。

将鼠标移到小点上方,可查看气象台名称。

然后点击查看天气观测和预报。

如需切换地图:点击带黑十字的绿色按钮放大地图;点击带横线的绿色按钮缩小地图;或者点击绿色箭头查看邻近地区的地图。


METAR-TAF: